createdAt,value
2023-03-19T00:00:30.099Z,1.80
2023-03-19T00:02:57.440Z,1.77
2023-03-19T00:05:24.591Z,1.76
2023-03-19T00:07:52.147Z,1.67
2023-03-19T00:10:19.243Z,1.68
2023-03-19T00:12:46.553Z,1.71
2023-03-19T00:15:14.652Z,1.55
2023-03-19T00:17:43.080Z,1.52
2023-03-19T00:20:12.251Z,1.64
2023-03-19T00:22:40.049Z,1.62
2023-03-19T00:25:08.642Z,1.59
2023-03-19T00:27:37.503Z,1.52
2023-03-19T00:30:06.616Z,1.43
2023-03-19T00:32:35.315Z,1.44
2023-03-19T00:35:02.370Z,1.50
2023-03-19T00:37:30.580Z,1.49
2023-03-19T00:39:57.472Z,1.46
2023-03-19T00:42:24.563Z,1.46
2023-03-19T00:44:51.525Z,1.44
2023-03-19T00:47:18.862Z,1.42
2023-03-19T00:49:45.810Z,1.34
2023-03-19T00:52:12.763Z,1.39
2023-03-19T00:54:40.586Z,1.38
2023-03-19T00:57:08.102Z,1.36
2023-03-19T00:59:35.017Z,1.34
2023-03-19T01:02:03.718Z,1.24
2023-03-19T01:04:30.907Z,1.30
2023-03-19T01:09:26.741Z,1.28
2023-03-19T01:11:54.176Z,1.16
2023-03-19T01:14:21.945Z,1.24
2023-03-19T01:16:48.839Z,1.23
2023-03-19T01:19:16.482Z,1.21
2023-03-19T01:21:46.434Z,1.15
2023-03-19T01:24:18.293Z,1.19
2023-03-19T01:26:50.842Z,0.75
2023-03-19T01:29:31.979Z,1.16
2023-03-19T01:32:07.591Z,1.02
2023-03-19T01:34:43.753Z,1.08
2023-03-19T01:37:14.179Z,1.04
2023-03-19T01:39:42.789Z,1.09
2023-03-19T01:42:14.685Z,1.03
2023-03-19T01:45:04.323Z,0.88
2023-03-19T01:47:44.710Z,1.01
2023-03-19T01:50:39.510Z,0.91
2023-03-19T01:53:31.854Z,0.88
2023-03-19T01:56:35.063Z,0.85
2023-03-19T01:59:14.239Z,0.82
2023-03-19T02:02:24.044Z,0.80
2023-03-19T02:08:34.055Z,0.81
2023-03-19T02:11:02.152Z,0.62
2023-03-19T02:13:29.370Z,0.78
2023-03-19T02:15:56.889Z,0.64
2023-03-19T02:18:25.622Z,0.67
2023-03-19T02:21:03.393Z,0.75
2023-03-19T02:23:39.699Z,0.75
2023-03-19T02:26:20.044Z,0.71
2023-03-19T02:28:51.510Z,0.73
2023-03-19T02:31:24.954Z,0.68
2023-03-19T02:34:14.355Z,0.62
2023-03-19T02:36:47.521Z,0.65
2023-03-19T02:39:32.432Z,0.59
2023-03-19T02:42:01.137Z,0.57
2023-03-19T02:44:30.715Z,0.56
2023-03-19T02:46:57.903Z,0.48
2023-03-19T02:49:25.077Z,0.54
2023-03-19T02:51:52.070Z,0.53
2023-03-19T02:54:18.906Z,0.53
2023-03-19T02:56:47.269Z,0.45
2023-03-19T02:59:14.119Z,0.52
2023-03-19T03:01:41.179Z,0.52
2023-03-19T03:04:08.805Z,-0.14
2023-03-19T03:06:35.746Z,0.36
2023-03-19T03:09:03.651Z,0.49
2023-03-19T03:11:30.556Z,0.34
2023-03-19T03:13:57.771Z,0.47
2023-03-19T03:16:25.677Z,0.45
2023-03-19T03:18:52.792Z,0.00
2023-03-19T03:21:21.506Z,-0.11
2023-03-19T03:23:48.734Z,0.30
2023-03-19T03:26:15.857Z,0.38
2023-03-19T03:28:43.491Z,-0.20
2023-03-19T03:31:10.615Z,0.39
2023-03-19T03:33:39.798Z,0.39
2023-03-19T03:36:07.189Z,0.20
2023-03-19T03:38:37.158Z,0.36
2023-03-19T03:41:04.830Z,0.35
2023-03-19T03:43:31.913Z,0.34
2023-03-19T03:45:59.686Z,0.33
2023-03-19T03:48:27.145Z,0.19
2023-03-19T03:50:54.489Z,0.21
2023-03-19T03:53:26.194Z,0.15
2023-03-19T03:55:53.336Z,0.26
2023-03-19T03:58:24.116Z,0.19
2023-03-19T04:00:54.679Z,0.22
2023-03-19T04:03:24.405Z,0.09
2023-03-19T04:05:53.009Z,0.19
2023-03-19T04:08:21.873Z,0.18
2023-03-19T04:10:50.595Z,0.04
2023-03-19T04:13:17.878Z,0.11
2023-03-19T04:15:44.895Z,0.00
2023-03-19T04:18:13.435Z,0.10
2023-03-19T04:20:41.518Z,0.07
2023-03-19T04:23:08.701Z,0.08
2023-03-19T04:25:35.712Z,-0.02
2023-03-19T04:28:03.821Z,0.08
2023-03-19T04:30:32.015Z,0.08
2023-03-19T04:33:00.827Z,0.09
2023-03-19T04:35:27.696Z,0.10
2023-03-19T04:37:54.806Z,0.08
2023-03-19T04:40:22.241Z,-0.02
2023-03-19T04:42:50.138Z,-0.03
2023-03-19T04:45:31.631Z,0.13
2023-03-19T04:47:59.522Z,0.16
2023-03-19T04:50:28.011Z,0.20
2023-03-19T04:52:55.681Z,0.19
2023-03-19T04:55:23.839Z,0.27
2023-03-19T04:58:04.613Z,0.03
2023-03-19T05:00:34.369Z,0.37
2023-03-19T05:03:01.672Z,0.29
2023-03-19T05:05:31.448Z,0.48
2023-03-19T05:07:59.058Z,0.45
2023-03-19T05:10:26.627Z,0.59
2023-03-19T05:12:54.378Z,0.60
2023-03-19T05:15:21.910Z,0.71
2023-03-19T05:17:57.827Z,0.82
2023-03-19T05:20:31.489Z,0.88
2023-03-19T05:23:05.401Z,0.96
2023-03-19T05:25:41.950Z,1.06
2023-03-19T05:28:11.554Z,0.85
2023-03-19T05:30:38.449Z,1.22
2023-03-19T05:33:24.084Z,1.28
2023-03-19T05:35:53.305Z,1.26
2023-03-19T05:38:35.364Z,1.45
2023-03-19T05:41:08.464Z,1.54
2023-03-19T05:43:43.813Z,1.60
2023-03-19T05:46:20.028Z,1.65
2023-03-19T05:48:47.456Z,1.79
2023-03-19T05:51:14.356Z,1.89
2023-03-19T05:53:44.285Z,1.94
2023-03-19T05:56:33.767Z,2.06
2023-03-19T05:59:36.016Z,2.12
2023-03-19T06:02:29.038Z,2.16
2023-03-19T06:05:12.239Z,2.20
2023-03-19T06:07:39.247Z,2.18
2023-03-19T06:10:13.068Z,2.32
2023-03-19T06:12:49.125Z,2.45
2023-03-19T06:15:33.682Z,2.41
2023-03-19T06:18:13.106Z,2.61
2023-03-19T06:20:40.322Z,2.74
2023-03-19T06:23:07.339Z,2.75
2023-03-19T06:25:34.575Z,2.81
2023-03-19T06:28:01.427Z,2.93
2023-03-19T06:30:34.919Z,3.12
2023-03-19T06:33:05.531Z,3.08
2023-03-19T06:35:33.439Z,3.23
2023-03-19T06:38:00.669Z,3.24
2023-03-19T06:40:28.311Z,3.39
2023-03-19T06:42:55.578Z,3.39
2023-03-19T06:45:22.769Z,3.45
2023-03-19T06:47:51.644Z,3.43
2023-03-19T06:50:22.009Z,3.12
2023-03-19T06:52:48.732Z,3.63
2023-03-19T06:55:18.234Z,3.61
2023-03-19T06:57:47.854Z,3.82
2023-03-19T07:00:15.446Z,3.89
2023-03-19T07:02:42.258Z,3.97
2023-03-19T07:05:09.352Z,4.00
2023-03-19T07:07:36.556Z,3.99
2023-03-19T07:10:04.029Z,4.08
2023-03-19T07:12:31.068Z,4.18
2023-03-19T07:14:58.052Z,4.42
2023-03-19T07:17:26.656Z,4.63
2023-03-19T07:19:54.735Z,4.42
2023-03-19T07:22:22.123Z,4.61
2023-03-19T07:24:49.168Z,4.69
2023-03-19T07:27:16.838Z,4.50
2023-03-19T07:29:43.720Z,4.69
2023-03-19T07:32:11.763Z,4.76
2023-03-19T07:34:38.784Z,4.92
2023-03-19T07:37:06.217Z,5.03
2023-03-19T07:39:33.106Z,5.15
2023-03-19T07:42:01.266Z,5.16
2023-03-19T07:44:47.990Z,5.03
2023-03-19T07:47:26.392Z,5.03
2023-03-19T07:49:55.728Z,5.01
2023-03-19T07:52:22.900Z,5.11
2023-03-19T07:54:50.666Z,5.21
2023-03-19T07:57:17.568Z,5.27
2023-03-19T07:59:44.547Z,5.44
2023-03-19T08:02:13.368Z,5.56
2023-03-19T08:04:42.086Z,5.58
2023-03-19T08:07:12.922Z,5.52
2023-03-19T08:09:40.727Z,5.85
2023-03-19T08:12:08.407Z,5.94
2023-03-19T08:14:35.654Z,6.07
2023-03-19T08:17:02.709Z,6.16
2023-03-19T08:19:29.708Z,6.29
2023-03-19T08:21:56.732Z,6.35
2023-03-19T08:24:23.615Z,6.23
2023-03-19T08:26:50.791Z,6.09
2023-03-19T08:29:19.052Z,6.41
2023-03-19T08:31:46.442Z,6.58
2023-03-19T08:34:13.381Z,6.73
2023-03-19T08:36:40.478Z,6.88
2023-03-19T08:39:07.458Z,6.97
2023-03-19T08:41:34.432Z,6.89
2023-03-19T08:44:01.519Z,7.09
2023-03-19T08:46:29.358Z,7.20
2023-03-19T08:48:56.535Z,7.28
2023-03-19T08:51:26.308Z,7.40
2023-03-19T08:53:53.897Z,7.39
2023-03-19T08:56:21.471Z,7.55
2023-03-19T08:58:48.515Z,7.70
2023-03-19T09:01:16.210Z,7.82
2023-03-19T09:03:45.400Z,7.86
2023-03-19T09:06:14.613Z,8.14
2023-03-19T09:08:42.239Z,8.26
2023-03-19T09:11:10.950Z,8.31
2023-03-19T09:13:38.094Z,8.28
2023-03-19T09:16:05.574Z,8.39
2023-03-19T09:18:33.703Z,8.53
2023-03-19T09:21:02.826Z,8.55
2023-03-19T09:23:29.804Z,8.62
2023-03-19T09:25:56.677Z,8.66
2023-03-19T09:28:23.798Z,8.71
2023-03-19T09:30:51.764Z,8.85
2023-03-19T09:33:20.458Z,8.84
2023-03-19T09:35:52.666Z,8.88
2023-03-19T09:38:22.038Z,8.91
2023-03-19T09:41:07.286Z,8.96
2023-03-19T09:43:49.620Z,9.01
2023-03-19T09:46:22.725Z,9.21
2023-03-19T09:49:06.468Z,9.19
2023-03-19T09:51:44.058Z,9.35
2023-03-19T09:54:27.643Z,9.49
2023-03-19T09:56:55.910Z,9.47
2023-03-19T09:59:25.101Z,9.73
2023-03-19T10:01:56.236Z,9.78
2023-03-19T10:04:42.605Z,9.85
2023-03-19T10:07:31.039Z,10.03
2023-03-19T10:10:39.476Z,10.23
2023-03-19T10:13:23.107Z,10.11
2023-03-19T10:15:53.061Z,10.42
2023-03-19T10:18:24.898Z,10.53
2023-03-19T10:21:01.354Z,10.61
2023-03-19T10:23:50.733Z,10.62
2023-03-19T10:26:23.749Z,10.78
2023-03-19T10:29:05.010Z,10.95
2023-03-19T10:31:49.863Z,11.09
2023-03-19T10:34:31.508Z,11.19
2023-03-19T10:37:20.660Z,11.27
2023-03-19T10:39:49.695Z,11.37
2023-03-19T10:42:47.165Z,11.43
2023-03-19T10:45:13.970Z,11.51
2023-03-19T10:47:43.156Z,11.53
2023-03-19T10:50:18.413Z,11.41
2023-03-19T10:52:53.278Z,11.52
2023-03-19T10:55:30.478Z,11.82
2023-03-19T10:58:04.821Z,11.91
2023-03-19T11:00:33.614Z,12.04
2023-03-19T11:03:04.861Z,12.13
2023-03-19T11:05:35.144Z,12.27
2023-03-19T11:08:32.849Z,12.17
2023-03-19T11:11:04.768Z,12.43
2023-03-19T11:13:35.028Z,12.46
2023-03-19T11:16:03.298Z,12.54
2023-03-19T11:18:37.206Z,12.60
2023-03-19T11:21:21.623Z,12.65
2023-03-19T11:23:53.581Z,12.90
2023-03-19T11:26:21.936Z,12.98
2023-03-19T11:28:52.411Z,12.94
2023-03-19T11:31:37.620Z,12.98
2023-03-19T11:34:41.121Z,13.10
2023-03-19T11:37:31.677Z,13.02
2023-03-19T11:40:02.011Z,13.14
2023-03-19T11:42:52.567Z,13.21
2023-03-19T11:45:26.226Z,13.30
2023-03-19T11:48:15.598Z,13.44
2023-03-19T11:51:13.781Z,13.57
2023-03-19T11:53:59.446Z,13.55
2023-03-19T11:56:47.272Z,13.36
2023-03-19T11:59:52.968Z,13.47
2023-03-19T12:02:38.146Z,13.52
2023-03-19T12:05:21.209Z,13.68
2023-03-19T12:08:23.332Z,13.56
2023-03-19T12:10:53.746Z,13.63
2023-03-19T12:13:45.921Z,13.80
2023-03-19T12:17:07.297Z,13.95
2023-03-19T12:20:12.628Z,14.04
2023-03-19T12:22:42.487Z,14.19
2023-03-19T12:25:41.121Z,14.33
2023-03-19T12:28:29.428Z,14.37
2023-03-19T12:31:16.802Z,14.42
2023-03-19T12:34:14.943Z,14.46
2023-03-19T12:36:51.829Z,14.53
2023-03-19T12:39:23.717Z,14.64
2023-03-19T12:41:53.386Z,14.79
2023-03-19T12:44:29.747Z,14.96
2023-03-19T12:47:33.856Z,15.02
2023-03-19T12:50:04.891Z,14.78
2023-03-19T12:52:39.126Z,15.10
2023-03-19T12:55:15.355Z,15.21
2023-03-19T12:57:48.936Z,15.15
2023-03-19T13:00:37.796Z,15.25
2023-03-19T13:03:23.133Z,15.26
2023-03-19T13:06:01.817Z,15.43
2023-03-19T13:08:37.571Z,15.48
2023-03-19T13:11:13.054Z,15.41
2023-03-19T13:14:03.282Z,15.43
2023-03-19T13:16:40.056Z,15.41
2023-03-19T13:19:25.468Z,15.57
2023-03-19T13:21:59.828Z,15.33
2023-03-19T13:24:35.209Z,15.73
2023-03-19T13:27:02.585Z,15.75
2023-03-19T13:29:31.990Z,15.65
2023-03-19T13:32:05.841Z,15.88
2023-03-19T13:34:35.780Z,15.96
2023-03-19T13:37:15.897Z,15.91
2023-03-19T13:39:44.560Z,15.81
2023-03-19T13:42:44.332Z,15.87
2023-03-19T13:45:20.480Z,15.95
2023-03-19T13:47:52.992Z,15.67
2023-03-19T13:50:20.511Z,16.17
2023-03-19T13:52:53.804Z,16.23
2023-03-19T13:55:44.672Z,16.22
2023-03-19T13:58:34.738Z,16.21
2023-03-19T14:01:02.151Z,16.25
2023-03-19T14:03:32.350Z,16.32
2023-03-19T14:06:00.960Z,16.33
2023-03-19T14:08:47.623Z,16.29
2023-03-19T14:11:30.408Z,16.43
2023-03-19T14:14:05.133Z,16.44
2023-03-19T14:16:41.395Z,16.41
2023-03-19T14:19:16.840Z,16.35
2023-03-19T14:22:08.215Z,16.40
2023-03-19T14:24:55.920Z,16.40
2023-03-19T14:27:36.293Z,16.42
2023-03-19T14:30:11.150Z,16.41
2023-03-19T14:32:42.286Z,16.29
2023-03-19T14:35:16.372Z,16.41
2023-03-19T14:37:49.368Z,16.35
2023-03-19T14:40:22.706Z,16.51
2023-03-19T14:42:56.533Z,16.56
2023-03-19T14:45:32.669Z,16.60
2023-03-19T14:48:45.686Z,16.62
2023-03-19T14:51:40.266Z,16.56
2023-03-19T14:54:21.038Z,16.54
2023-03-19T14:56:48.925Z,16.45
2023-03-19T14:59:16.135Z,16.48
2023-03-19T15:01:50.076Z,16.49
2023-03-19T15:04:18.008Z,16.53
2023-03-19T15:06:54.969Z,16.48
2023-03-19T15:09:33.957Z,16.39
2023-03-19T15:12:31.541Z,16.41
2023-03-19T15:15:19.746Z,16.32
2023-03-19T15:18:02.914Z,16.30
2023-03-19T15:20:38.715Z,16.28
2023-03-19T15:23:25.865Z,16.26
2023-03-19T15:26:20.475Z,16.19
2023-03-19T15:28:53.872Z,15.88
2023-03-19T15:31:37.532Z,16.13
2023-03-19T15:34:21.528Z,16.07
2023-03-19T15:36:53.580Z,15.93
2023-03-19T15:39:25.049Z,15.88
2023-03-19T15:41:53.470Z,15.85
2023-03-19T15:44:33.256Z,15.88
2023-03-19T15:47:03.959Z,15.81
2023-03-19T15:49:47.415Z,15.82
2023-03-19T15:52:18.209Z,15.64
2023-03-19T15:54:45.369Z,15.75
2023-03-19T15:57:16.480Z,15.76
2023-03-19T15:59:44.315Z,15.62
2023-03-19T16:02:24.785Z,15.67
2023-03-19T16:05:23.839Z,15.70
2023-03-19T16:07:43.418Z,15.72
2023-03-19T16:10:43.865Z,15.64
2023-03-19T16:13:25.845Z,15.40
2023-03-19T16:16:22.389Z,15.12
2023-03-19T16:18:53.066Z,14.95
2023-03-19T16:21:29.258Z,14.69
2023-03-19T16:24:02.486Z,14.55
2023-03-19T16:26:41.801Z,14.24
2023-03-19T16:29:18.505Z,14.16
2023-03-19T16:31:51.975Z,13.87
2023-03-19T16:34:25.746Z,13.71
2023-03-19T16:36:52.781Z,13.41
2023-03-19T16:39:35.800Z,13.27
2023-03-19T16:42:09.029Z,13.22
2023-03-19T16:44:40.923Z,13.09
2023-03-19T16:47:13.323Z,12.77
2023-03-19T16:49:40.659Z,12.81
2023-03-19T16:52:16.042Z,12.67
2023-03-19T16:54:43.481Z,12.52
2023-03-19T16:57:13.547Z,12.40
2023-03-19T16:59:41.008Z,12.25
2023-03-19T17:02:16.855Z,12.06
2023-03-19T17:04:47.094Z,11.96
2023-03-19T17:07:14.072Z,11.95
2023-03-19T17:09:41.158Z,11.86
2023-03-19T17:12:14.637Z,11.74
2023-03-19T17:14:42.518Z,11.65
2023-03-19T17:17:22.339Z,11.56
2023-03-19T17:19:49.806Z,11.32
2023-03-19T17:22:16.812Z,11.32
2023-03-19T17:24:54.335Z,11.33
2023-03-19T17:27:25.104Z,10.03
2023-03-19T17:29:52.175Z,11.18
2023-03-19T17:32:20.139Z,11.10
2023-03-19T17:34:47.332Z,11.04
2023-03-19T17:37:15.019Z,11.02
2023-03-19T17:39:43.380Z,10.91
2023-03-19T17:42:29.495Z,10.80
2023-03-19T17:45:02.842Z,10.65
2023-03-19T17:47:29.941Z,10.64
2023-03-19T17:49:57.334Z,10.58
2023-03-19T17:52:24.360Z,10.49
2023-03-19T17:54:51.403Z,10.21
2023-03-19T17:57:22.226Z,10.31
2023-03-19T17:59:49.202Z,10.16
2023-03-19T18:02:24.762Z,10.18
2023-03-19T18:04:52.708Z,10.05
2023-03-19T18:07:19.873Z,10.02
2023-03-19T18:09:47.073Z,9.97
2023-03-19T18:12:13.880Z,9.87
2023-03-19T18:14:40.866Z,9.80
2023-03-19T18:17:10.589Z,9.76
2023-03-19T18:19:38.694Z,9.70
2023-03-19T18:22:13.982Z,9.66
2023-03-19T18:24:41.631Z,9.56
2023-03-19T18:27:08.439Z,9.54
2023-03-19T18:29:35.578Z,9.45
2023-03-19T18:32:06.825Z,9.41
2023-03-19T18:34:34.267Z,9.16
2023-03-19T18:37:02.170Z,9.26
2023-03-19T18:39:30.118Z,9.23
2023-03-19T18:41:57.236Z,9.17
2023-03-19T18:44:24.344Z,9.06
2023-03-19T18:46:51.371Z,9.07
2023-03-19T18:49:29.923Z,8.97
2023-03-19T18:52:04.576Z,8.93
2023-03-19T18:54:32.691Z,8.82
2023-03-19T18:57:01.144Z,8.88
2023-03-19T18:59:31.013Z,8.82
2023-03-19T19:02:21.221Z,8.74
2023-03-19T19:04:48.468Z,8.74
2023-03-19T19:07:16.697Z,8.72
2023-03-19T19:09:43.618Z,8.63
2023-03-19T19:12:14.769Z,8.64
2023-03-19T19:14:43.150Z,8.55
2023-03-19T19:17:16.824Z,8.59
2023-03-19T19:19:43.692Z,8.59
2023-03-19T19:22:18.953Z,8.51
2023-03-19T19:24:46.144Z,8.50
2023-03-19T19:27:26.628Z,8.45
2023-03-19T19:29:53.755Z,8.39
2023-03-19T19:32:27.591Z,8.16
2023-03-19T19:34:55.102Z,8.30
2023-03-19T19:37:23.520Z,8.27
2023-03-19T19:39:51.601Z,8.24
2023-03-19T19:42:21.166Z,8.18
2023-03-19T19:44:52.667Z,8.13
2023-03-19T19:47:19.868Z,8.05
2023-03-19T19:49:46.858Z,8.01
2023-03-19T19:52:19.517Z,7.87
2023-03-19T19:54:47.049Z,7.92
2023-03-19T19:57:22.019Z,7.84
2023-03-19T19:59:50.333Z,7.86
2023-03-19T20:02:22.485Z,7.72
2023-03-19T20:04:49.731Z,7.75
2023-03-19T20:07:16.726Z,7.70
2023-03-19T20:09:44.212Z,7.77
2023-03-19T20:12:19.408Z,7.75
2023-03-19T20:14:46.962Z,7.75
2023-03-19T20:17:16.217Z,7.64
2023-03-19T20:19:44.400Z,7.53
2023-03-19T20:22:11.317Z,7.60
2023-03-19T20:24:39.143Z,7.49
2023-03-19T20:27:15.873Z,7.53
2023-03-19T20:29:43.821Z,7.39
2023-03-19T20:32:38.223Z,7.42
2023-03-19T20:35:14.210Z,7.38
2023-03-19T20:37:41.214Z,7.34
2023-03-19T20:40:08.323Z,7.24
2023-03-19T20:42:35.629Z,7.30
2023-03-19T20:45:02.971Z,7.26
2023-03-19T20:47:33.133Z,7.21
2023-03-19T20:50:00.406Z,7.19
2023-03-19T20:52:27.345Z,7.16
2023-03-19T20:54:54.545Z,7.16
2023-03-19T20:57:30.747Z,7.13
2023-03-19T21:00:07.013Z,7.12
2023-03-19T21:02:34.019Z,7.09
2023-03-19T21:05:07.464Z,7.01
2023-03-19T21:07:34.734Z,7.03
2023-03-19T21:10:19.951Z,7.01
2023-03-19T21:12:46.809Z,6.98
2023-03-19T21:15:15.080Z,6.94
2023-03-19T21:17:42.218Z,6.93
2023-03-19T21:20:17.404Z,6.90
2023-03-19T21:22:47.656Z,6.70
2023-03-19T21:25:30.390Z,6.71
2023-03-19T21:28:03.487Z,6.72
2023-03-19T21:30:30.851Z,6.72
2023-03-19T21:32:57.691Z,6.69
2023-03-19T21:35:27.281Z,6.64
2023-03-19T21:37:54.630Z,6.50
2023-03-19T21:40:30.302Z,6.27
2023-03-19T21:43:02.420Z,6.58
2023-03-19T21:45:35.390Z,6.45
2023-03-19T21:48:23.049Z,6.50
2023-03-19T21:50:59.291Z,6.41
2023-03-19T21:53:29.597Z,6.38
2023-03-19T21:55:59.107Z,6.32
2023-03-19T21:58:34.834Z,6.39
2023-03-19T22:01:04.102Z,6.35
2023-03-19T22:03:31.392Z,6.34
2023-03-19T22:05:58.553Z,6.27
2023-03-19T22:08:25.774Z,6.23
2023-03-19T22:10:58.563Z,6.23
2023-03-19T22:13:33.981Z,6.21
2023-03-19T22:16:01.747Z,6.18
2023-03-19T22:18:30.044Z,6.14
2023-03-19T22:20:56.854Z,6.11
2023-03-19T22:23:23.898Z,5.99
2023-03-19T22:25:53.033Z,6.03
2023-03-19T22:28:33.975Z,6.00
2023-03-19T22:31:03.178Z,5.89
2023-03-19T22:33:30.371Z,5.93
2023-03-19T22:35:57.232Z,5.85
2023-03-19T22:38:24.429Z,5.82
2023-03-19T22:40:54.702Z,5.80
2023-03-19T22:43:34.617Z,5.78
2023-03-19T22:46:13.595Z,5.69
2023-03-19T22:48:43.440Z,5.56
2023-03-19T22:51:17.744Z,5.62
2023-03-19T22:53:56.589Z,5.63
2023-03-19T22:56:32.261Z,5.60
2023-03-19T22:59:07.906Z,5.58
2023-03-19T23:01:39.982Z,5.46
2023-03-19T23:04:37.816Z,5.55
2023-03-19T23:07:04.928Z,5.37
2023-03-19T23:09:38.748Z,5.48
2023-03-19T23:14:34.717Z,5.44
2023-03-19T23:17:10.106Z,5.40
2023-03-19T23:19:38.487Z,5.28
2023-03-19T23:22:09.741Z,5.29
2023-03-19T23:24:36.744Z,5.39
2023-03-19T23:27:04.186Z,5.36
2023-03-19T23:29:35.331Z,5.35
2023-03-19T23:32:03.527Z,5.25
2023-03-19T23:34:30.427Z,5.35
2023-03-19T23:36:58.095Z,5.34
2023-03-19T23:39:25.705Z,5.25
2023-03-19T23:41:56.926Z,5.32
2023-03-19T23:44:24.211Z,5.30
2023-03-19T23:46:51.790Z,5.28
2023-03-19T23:49:29.004Z,5.26
2023-03-19T23:51:56.778Z,5.15
2023-03-19T23:54:31.555Z,5.20
2023-03-19T23:57:01.632Z,5.07
2023-03-19T23:59:33.534Z,5.17
